Time;durP1;ratioP1;P1;durP2;ratioP2;P2;SDS_P1;SDS_P2;PMS_P1;PMS_P2;Temp;Humidity;BMP_temperature;BMP_pressure;BME280_temperature;BME280_humidity;BME280_pressure;Samples;Min_cycle;Max_cycle;Signal;HPM_P1;HPM_P2
2021/05/13 00:01:25;;;;;;;3.83;3.00;;;;;;;14.55;58.20;101059.47;6341872;28;20214;-71
2021/05/13 00:04:29;;;;;;;3.15;2.80;;;;;;;14.57;58.63;101068.31;6338253;28;20311;-72
2021/05/13 00:07:48;;;;;;;3.03;2.92;;;;;;;14.60;58.23;101070.59;6338989;28;20234;-71
2021/05/13 00:11:29;;;;;;;3.60;3.10;;;;;;;14.47;58.70;101048.84;6339493;28;20226;-71
2021/05/13 00:14:32;;;;;;;3.53;3.20;;;;;;;14.73;57.89;101067.59;6337947;28;20187;-71
2021/05/13 00:17:37;;;;;;;3.35;3.10;;;;;;;14.56;58.13;101072.09;6338660;28;20183;-71
2021/05/13 00:20:43;;;;;;;8.40;3.40;;;;;;;14.55;59.03;101069.63;6339280;28;20182;-70
2021/05/13 00:23:47;;;;;;;5.13;3.22;;;;;;;14.59;58.56;101063.41;6338844;28;20207;-71
2021/05/13 00:26:51;;;;;;;8.02;3.15;;;;;;;14.50;58.96;101062.09;6338755;28;20236;-71
2021/05/13 00:29:55;;;;;;;8.25;3.00;;;;;;;14.38;59.29;101069.47;6338416;28;20221;-71
2021/05/13 00:32:59;;;;;;;10.65;3.50;;;;;;;14.38;59.45;101053.00;6338133;28;20186;-71
2021/05/13 00:36:03;;;;;;;4.07;3.72;;;;;;;14.36;59.70;101055.13;6336924;28;20560;-71
2021/05/13 00:39:10;;;;;;;6.78;3.65;;;;;;;14.48;59.07;101058.75;6337112;28;20228;-70
2021/05/13 00:42:16;;;;;;;3.88;3.15;;;;;;;14.43;59.20;101050.41;6337524;28;20193;-71
2021/05/13 00:45:21;;;;;;;3.83;3.42;;;;;;;14.33;59.91;101047.38;6335977;28;20278;-72
2021/05/13 00:48:32;;;;;;;11.63;3.45;;;;;;;14.32;59.83;101048.47;6337313;28;20191;-70
2021/05/13 00:51:36;;;;;;;3.47;3.15;;;;;;;14.24;60.06;101046.03;6337256;28;20189;-70
2021/05/13 00:54:41;;;;;;;4.82;3.22;;;;;;;14.20;60.38;101055.81;6335974;28;20384;-72
2021/05/13 00:57:49;;;;;;;4.28;3.42;;;;;;;14.14;60.71;101054.00;6337254;28;20192;-70
2021/05/13 01:01:02;;;;;;;4.20;3.75;;;;;;;14.14;60.71;101054.00;6348293;22;20227;-71
2021/05/13 01:04:07;;;;;;;9.82;3.67;;;;;;;14.09;60.79;101054.72;6335768;28;20549;-71
2021/05/13 01:07:11;;;;;;;4.82;3.33;;;;;;;14.02;61.18;101053.16;6335938;28;20530;-71
2021/05/13 01:10:16;;;;;;;6.78;3.67;;;;;;;13.99;61.20;101042.63;6336937;28;20183;-71
2021/05/13 01:13:22;;;;;;;4.63;3.83;;;;;;;13.79;61.61;101016.34;6337915;28;20232;-70
2021/05/13 01:16:33;;;;;;;7.50;4.15;;;;;;;13.90;62.11;101046.75;6339867;28;20371;-71
2021/05/13 01:19:38;;;;;;;7.03;3.58;;;;;;;13.59;62.25;100999.34;6340530;28;20531;-71
2021/05/13 01:22:43;;;;;;;5.22;3.88;;;;;;;13.83;62.27;101044.13;6340519;28;20439;-71
2021/05/13 01:25:51;;;;;;;5.00;4.20;;;;;;;13.92;62.14;101044.66;6341775;28;20183;-72
2021/05/13 01:28:54;;;;;;;6.28;4.10;;;;;;;13.93;62.34;101043.56;6341692;28;20221;-71
2021/05/13 01:31:58;;;;;;;8.07;4.65;;;;;;;13.91;62.64;101034.75;6341512;28;20190;-71
2021/05/13 01:35:03;;;;;;;9.82;4.90;;;;;;;13.84;63.31;101039.50;6340219;28;20411;-71
2021/05/13 01:38:11;;;;;;;10.38;4.60;;;;;;;13.97;62.92;101039.28;6340317;28;20411;-71
2021/05/13 01:41:16;;;;;;;7.45;5.03;;;;;;;13.94;63.47;101039.75;6341121;28;20252;-71
2021/05/13 01:44:19;;;;;;;9.40;5.32;;;;;;;13.92;63.81;101041.91;6340941;28;20210;-71
2021/05/13 01:47:23;;;;;;;6.47;5.00;;;;;;;13.91;64.13;101037.47;6341359;28;20189;-71
2021/05/13 01:50:29;;;;;;;9.27;6.10;;;;;;;13.98;63.79;101038.22;6340904;28;20251;-71
2021/05/13 01:53:33;;;;;;;7.95;5.90;;;;;;;13.98;63.99;101035.47;6340862;28;20218;-71
2021/05/13 01:56:37;;;;;;;8.18;6.00;;;;;;;13.89;64.54;101031.41;6341149;28;20249;-71
2021/05/13 01:59:41;;;;;;;11.25;6.22;;;;;;;13.91;64.97;101035.59;6340525;28;20266;-71
2021/05/13 02:02:47;;;;;;;12.48;5.78;;;;;;;13.87;65.14;101030.81;6339642;28;20245;-71
2021/05/13 02:05:51;;;;;;;10.88;6.90;;;;;;;13.79;65.41;101032.78;6340473;28;20217;-71
2021/05/13 02:08:55;;;;;;;8.85;6.47;;;;;;;13.96;65.05;101034.88;6340152;28;20351;-71
2021/05/13 02:12:00;;;;;;;10.57;6.25;;;;;;;13.89;65.59;101028.66;6340641;28;20183;-71
2021/05/13 02:15:06;;;;;;;8.60;7.13;;;;;;;13.82;66.02;101015.88;6339603;28;20210;-71
2021/05/13 02:18:11;;;;;;;10.45;6.90;;;;;;;13.85;65.94;101027.44;6340216;28;20190;-71
2021/05/13 02:21:16;;;;;;;8.75;6.70;;;;;;;13.81;66.09;101016.94;6340029;28;20190;-70
2021/05/13 02:24:20;;;;;;;10.80;7.55;;;;;;;13.68;67.05;101022.63;6339441;28;20215;-70
2021/05/13 02:27:24;;;;;;;11.02;6.90;;;;;;;13.72;67.11;101025.72;6338927;28;20322;-72
2021/05/13 02:30:29;;;;;;;12.10;7.75;;;;;;;13.62;66.98;101001.63;6339897;28;20186;-71
2021/05/13 02:33:32;;;;;;;11.93;8.52;;;;;;;13.64;67.43;101018.66;6338808;28;20498;-72
2021/05/13 02:36:37;;;;;;;8.23;7.43;;;;;;;13.76;67.08;101005.00;6338702;28;20221;-72
2021/05/13 02:39:41;;;;;;;9.05;7.57;;;;;;;13.65;67.68;101009.38;6339854;28;20263;-71
2021/05/13 02:42:45;;;;;;;9.98;7.72;;;;;;;13.44;68.17;100974.25;6339948;28;20228;-72
2021/05/13 02:45:49;;;;;;;8.85;7.75;;;;;;;13.71;68.00;101013.91;6338485;28;20274;-71
2021/05/13 02:48:53;;;;;;;12.50;7.70;;;;;;;13.67;68.18;101012.72;6339621;28;20183;-71
2021/05/13 02:51:56;;;;;;;9.98;8.27;;;;;;;13.77;68.09;101007.50;6337516;28;20205;-71
2021/05/13 02:55:01;;;;;;;11.90;8.00;;;;;;;13.79;68.13;101012.75;6339388;28;20187;-72
2021/05/13 02:58:05;;;;;;;16.50;9.00;;;;;;;13.73;68.59;101011.81;6338547;28;20182;-71
2021/05/13 03:01:21;;;;;;;19.50;8.88;;;;;;;13.76;68.53;101011.31;6339117;28;20296;-70
2021/05/13 03:04:25;;;;;;;12.65;8.93;;;;;;;13.74;68.90;101013.44;6339239;28;20218;-70
2021/05/13 03:07:29;;;;;;;13.52;9.00;;;;;;;13.77;69.40;101007.50;6339000;28;20182;-72
2021/05/13 03:10:42;;;;;;;12.20;8.88;;;;;;;13.99;68.07;101021.53;6338914;28;20217;-71
2021/05/13 03:13:48;;;;;;;18.73;9.35;;;;;;;13.88;68.93;101005.88;6337746;28;20186;-71
2021/05/13 03:16:51;;;;;;;11.95;9.55;;;;;;;13.94;68.66;101001.38;6338245;28;20237;-71
2021/05/13 03:19:58;;;;;;;13.32;9.60;;;;;;;13.88;69.23;101007.78;6338967;28;20183;-71
2021/05/13 03:23:03;;;;;;;13.80;9.07;;;;;;;13.92;69.45;101009.00;6338926;28;20190;-72
2021/05/13 03:26:08;;;;;;;13.63;9.77;;;;;;;13.94;69.06;100991.22;6338595;28;20269;-71
2021/05/13 03:29:12;;;;;;;13.60;10.18;;;;;;;13.92;69.47;100992.53;6337499;28;20408;-71
2021/05/13 03:32:16;;;;;;;18.02;10.35;;;;;;;13.91;69.82;100999.09;6338755;28;20246;-71
2021/05/13 03:35:19;;;;;;;15.68;9.95;;;;;;;13.98;69.54;100997.06;6336234;28;20271;-71
2021/05/13 03:38:23;;;;;;;14.40;9.93;;;;;;;14.04;69.61;100998.88;6338065;28;20183;-71
2021/05/13 03:41:28;;;;;;;16.35;10.45;;;;;;;13.99;69.65;100999.59;6338596;28;20254;-71
2021/05/13 03:44:32;;;;;;;13.68;9.63;;;;;;;13.97;69.87;100990.72;6338454;28;20244;-71
2021/05/13 03:47:36;;;;;;;16.50;9.98;;;;;;;14.06;69.68;100999.47;6338244;28;20189;-71
2021/05/13 03:50:39;;;;;;;18.35;9.93;;;;;;;14.08;69.98;101002.81;6338058;28;20214;-71
2021/05/13 03:53:43;;;;;;;11.93;9.60;;;;;;;14.17;68.81;100979.44;6337949;28;20189;-71
2021/05/13 03:56:48;;;;;;;20.13;10.25;;;;;;;14.15;69.72;100993.38;6337031;28;20403;-71
2021/05/13 03:59:55;;;;;;;21.88;10.90;;;;;;;14.22;69.63;100998.78;6336756;28;20478;-71
2021/05/13 04:02:59;;;;;;;16.98;10.60;;;;;;;14.42;68.77;100999.31;6337376;28;20237;-71
2021/05/13 04:06:04;;;;;;;16.55;10.50;;;;;;;14.50;68.29;101004.44;6337221;28;20212;-71
2021/05/13 04:09:09;;;;;;;14.70;9.50;;;;;;;14.51;68.31;101002.53;6337957;28;20251;-71
2021/05/13 04:12:14;;;;;;;22.73;10.63;;;;;;;14.40;68.82;100991.31;6338047;28;20250;-71
2021/05/13 04:15:18;;;;;;;17.05;10.85;;;;;;;14.48;68.59;100992.88;6337723;28;20236;-71
2021/05/13 04:18:22;;;;;;;17.58;10.07;;;;;;;14.58;68.25;100993.09;6337510;28;20186;-71
2021/05/13 04:21:26;;;;;;;12.93;9.57;;;;;;;14.52;68.48;100994.06;6336384;28;20356;-72
2021/05/13 04:24:29;;;;;;;16.37;9.87;;;;;;;14.59;68.16;100994.75;6336275;28;20289;-71
2021/05/13 04:27:35;;;;;;;12.07;10.23;;;;;;;14.63;68.00;100984.97;6336297;28;20402;-71
2021/05/13 04:30:38;;;;;;;26.30;9.55;;;;;;;14.64;68.08;100980.31;6336765;28;20443;-71
2021/05/13 04:33:42;;;;;;;16.77;10.18;;;;;;;14.58;68.51;100971.13;6337079;28;20228;-71
2021/05/13 04:36:45;;;;;;;11.65;9.82;;;;;;;14.56;68.65;100978.75;6337594;28;20187;-71
2021/05/13 04:39:49;;;;;;;19.70;10.32;;;;;;;14.60;68.46;100966.25;6335743;28;20205;-71
2021/05/13 04:42:54;;;;;;;19.40;9.85;;;;;;;14.71;68.19;100981.88;6336233;28;20252;-71
2021/05/13 04:45:58;;;;;;;16.55;10.38;;;;;;;14.69;68.31;100992.25;6337039;28;20210;-71
2021/05/13 04:49:18;;;;;;;17.67;11.18;;;;;;;14.67;69.13;100983.41;6338680;28;20423;-72
2021/05/13 04:52:24;;;;;;;20.08;10.48;;;;;;;14.88;67.74;100993.78;6341271;28;20411;-72
2021/05/13 04:55:28;;;;;;;15.88;9.80;;;;;;;14.78;68.61;100987.22;6342433;28;20186;-71
2021/05/13 04:58:33;;;;;;;15.32;10.20;;;;;;;14.76;68.25;100976.50;6342156;28;20262;-71
2021/05/13 05:01:37;;;;;;;14.13;10.50;;;;;;;14.79;68.45;100988.91;6340504;28;20513;-71
2021/05/13 05:04:41;;;;;;;14.98;10.75;;;;;;;14.89;67.61;100989.13;6340842;28;20249;-71
2021/05/13 05:07:44;;;;;;;14.68;10.20;;;;;;;14.87;67.55;100996.75;6341476;28;20183;-72
2021/05/13 05:10:48;;;;;;;16.45;10.95;;;;;;;14.91;67.53;100982.31;6341100;28;20373;-72
2021/05/13 05:13:52;;;;;;;12.57;10.68;;;;;;;14.76;67.80;100990.22;6342024;28;20183;-71
2021/05/13 05:16:57;;;;;;;18.20;10.98;;;;;;;14.83;67.67;100984.59;6339678;28;20273;-71
2021/05/13 05:20:01;;;;;;;17.27;11.93;;;;;;;14.85;67.72;100983.28;6341888;28;20235;-71
2021/05/13 05:23:06;;;;;;;15.45;11.40;;;;;;;14.88;67.37;100991.03;6340825;28;20182;-71
2021/05/13 05:26:11;;;;;;;24.60;10.85;;;;;;;14.94;67.61;100987.34;6341827;28;20211;-72
2021/05/13 05:29:16;;;;;;;15.07;10.40;;;;;;;14.99;67.31;100973.72;6340193;28;20264;-71
2021/05/13 05:32:20;;;;;;;20.58;10.57;;;;;;;15.14;66.91;100977.84;6340416;28;20478;-71
2021/05/13 05:35:25;;;;;;;17.92;11.55;;;;;;;15.27;66.51;100975.66;6341254;28;20187;-71
2021/05/13 05:38:29;;;;;;;19.50;10.30;;;;;;;15.31;66.64;100970.47;6340240;28;20466;-71
2021/05/13 05:41:33;;;;;;;24.23;11.32;;;;;;;15.36;66.38;100978.81;6341468;28;20183;-71
2021/05/13 05:44:37;;;;;;;23.70;10.43;;;;;;;15.45;65.68;100969.13;6341212;28;20189;-72
2021/05/13 05:47:41;;;;;;;18.13;10.77;;;;;;;15.55;65.67;100972.94;6341226;28;20262;-72
2021/05/13 05:50:45;;;;;;;20.33;10.27;;;;;;;15.77;65.20;100970.28;6340897;28;20221;-72
2021/05/13 05:53:49;;;;;;;12.80;11.15;;;;;;;15.86;64.79;100960.56;6340786;28;20205;-72
2021/05/13 05:56:53;;;;;;;15.68;10.95;;;;;;;16.06;64.60;100963.66;6340938;28;20218;-72
2021/05/13 05:59:58;;;;;;;13.55;10.45;;;;;;;16.20;64.00;100967.72;6340519;28;20217;-71
2021/05/13 06:03:02;;;;;;;18.17;10.95;;;;;;;16.35;64.25;100966.31;6340436;28;20284;-71
2021/05/13 06:06:07;;;;;;;16.48;10.43;;;;;;;16.42;64.36;100961.47;6339217;28;20465;-71
2021/05/13 06:09:11;;;;;;;12.35;9.75;;;;;;;16.59;62.68;100962.31;6340268;28;20244;-71
2021/05/13 06:12:15;;;;;;;23.75;10.25;;;;;;;16.67;62.33;100970.13;6339295;28;20372;-72
2021/05/13 06:15:21;;;;;;;13.50;9.65;;;;;;;16.81;61.50;100971.44;6340208;28;20218;-71
2021/05/13 06:18:25;;;;;;;16.08;9.70;;;;;;;16.85;61.42;100965.16;6340174;28;20182;-72
2021/05/13 06:21:29;;;;;;;15.98;10.32;;;;;;;17.01;60.04;100965.34;6340430;28;20183;-71
2021/05/13 06:24:33;;;;;;;19.17;9.30;;;;;;;17.10;60.52;100953.63;6340076;28;20221;-72
2021/05/13 06:27:38;;;;;;;12.15;9.07;;;;;;;17.28;59.61;100945.00;6340177;28;20246;-72
2021/05/13 06:30:46;;;;;;;18.08;10.20;;;;;;;17.35;60.36;100953.94;6339902;28;20245;-71
2021/05/13 06:33:49;;;;;;;11.68;9.40;;;;;;;17.50;58.67;100959.63;6338656;28;20407;-71
2021/05/13 06:36:54;;;;;;;19.63;9.60;;;;;;;17.59;58.12;100956.44;6339829;28;20286;-71
2021/05/13 06:39:58;;;;;;;12.50;9.45;;;;;;;17.72;57.12;100956.00;6339566;28;20203;-72
2021/05/13 06:43:03;;;;;;;16.90;9.60;;;;;;;17.79;56.73;100962.16;6338611;28;20497;-72
2021/05/13 06:46:09;;;;;;;11.90;8.57;;;;;;;17.76;55.45;100962.66;6339693;28;20400;-72
2021/05/13 06:49:13;;;;;;;15.57;8.43;;;;;;;17.84;54.88;100959.44;6339629;28;20190;-72
2021/05/13 06:52:17;;;;;;;15.43;8.02;;;;;;;17.62;55.18;100901.53;6338186;28;20408;-72
2021/05/13 06:55:21;;;;;;;13.40;8.18;;;;;;;17.89;54.93;100935.47;6338578;28;20233;-71
2021/05/13 06:58:25;;;;;;;14.23;7.97;;;;;;;18.13;55.23;100953.34;6338072;28;20413;-72
2021/05/13 07:01:30;;;;;;;9.82;8.82;;;;;;;18.24;55.29;100954.25;6338423;28;20294;-72
2021/05/13 07:04:34;;;;;;;14.65;8.40;;;;;;;18.33;54.06;100951.84;6338797;28;20195;-72
2021/05/13 07:07:39;;;;;;;14.90;8.63;;;;;;;18.42;54.16;100955.75;6337631;28;20272;-71
2021/05/13 07:10:43;;;;;;;17.30;8.95;;;;;;;18.44;54.99;100959.06;6336794;28;20236;-72
2021/05/13 07:13:47;;;;;;;11.05;9.05;;;;;;;18.33;56.09;100952.69;6338666;28;20182;-72
2021/05/13 07:16:51;;;;;;;15.43;8.75;;;;;;;18.37;56.54;100956.56;6338787;28;20218;-72
2021/05/13 07:19:56;;;;;;;11.98;8.95;;;;;;;18.57;57.17;100953.97;6338533;28;20214;-72
2021/05/13 07:22:59;;;;;;;17.10;7.78;;;;;;;18.67;54.20;100948.50;6337094;28;20252;-72
2021/05/13 07:26:03;;;;;;;8.80;7.93;;;;;;;18.78;54.45;100943.84;6336114;28;20361;-72
2021/05/13 07:29:08;;;;;;;11.00;8.80;;;;;;;18.91;55.37;100948.06;6338211;28;20250;-71
2021/05/13 07:32:13;;;;;;;13.65;8.88;;;;;;;18.96;54.92;100946.16;6336061;28;20426;-71
2021/05/13 07:35:18;;;;;;;15.02;8.02;;;;;;;19.14;54.47;100947.59;6338350;28;20194;-71
2021/05/13 07:38:21;;;;;;;11.15;8.23;;;;;;;19.25;53.28;100952.09;6338222;28;20182;-71
2021/05/13 07:41:25;;;;;;;9.68;8.55;;;;;;;19.21;54.38;100953.72;6337929;28;20190;-73
2021/05/13 07:44:29;;;;;;;9.95;8.60;;;;;;;19.27;54.35;100958.16;6336588;28;20205;-72
2021/05/13 07:47:37;;;;;;;9.52;8.60;;;;;;;19.36;53.65;100956.56;6336632;28;20215;-72
2021/05/13 07:50:41;;;;;;;17.33;7.70;;;;;;;19.41;53.94;100948.31;6337924;28;20228;-71
2021/05/13 07:53:44;;;;;;;17.73;8.80;;;;;;;19.51;52.52;100948.34;6337432;28;20217;-72
2021/05/13 07:56:48;;;;;;;9.48;8.60;;;;;;;19.56;52.24;100951.09;6336824;28;20232;-71
2021/05/13 07:59:52;;;;;;;12.23;8.43;;;;;;;19.56;52.87;100955.81;6337027;28;20228;-72
2021/05/13 08:02:57;;;;;;;12.27;8.20;;;;;;;19.55;50.98;100941.13;6337479;28;20238;-72
2021/05/13 08:06:00;;;;;;;12.93;8.40;;;;;;;19.70;51.96;100949.47;6336056;28;20562;-72
2021/05/13 08:09:05;;;;;;;11.25;7.60;;;;;;;19.76;50.66;100940.06;6335837;28;20182;-71
2021/05/13 08:12:11;;;;;;;12.30;7.68;;;;;;;19.82;52.21;100938.94;6337036;28;20231;-72
2021/05/13 08:15:16;;;;;;;13.82;8.13;;;;;;;19.67;51.50;100936.16;6336928;28;20245;-71
2021/05/13 08:18:20;;;;;;;8.30;7.22;;;;;;;19.72;51.15;100930.63;6335928;28;20523;-72
2021/05/13 08:21:24;;;;;;;14.98;7.28;;;;;;;19.75;50.13;100932.84;6336955;28;20282;-71
2021/05/13 08:24:28;;;;;;;14.02;7.82;;;;;;;19.74;50.01;100936.75;6335564;28;20168;-71
2021/05/13 08:27:32;;;;;;;11.93;7.43;;;;;;;19.80;50.11;100940.31;6336678;28;20207;-71
2021/05/13 08:30:35;;;;;;;;;;;;;;;19.95;47.37;100932.88;6337315;28;20075;-71
2021/05/13 08:33:39;;;;;;;;;;;;;;;20.02;48.90;100927.06;6336337;28;19952;-71
2021/05/13 08:36:43;;;;;;;9.50;7.65;;;;;;;20.11;50.03;100932.88;6335873;28;20272;-71
2021/05/13 08:39:47;;;;;;;;;;;;;;;20.06;49.21;100927.31;6335704;28;20215;-72
2021/05/13 08:42:50;;;;;;;;;;;;;;;20.12;49.46;100931.75;6336792;28;19915;-71
2021/05/13 08:45:56;;;;;;;;;;;;;;;20.17;49.26;100931.75;6336843;28;19916;-71
2021/05/13 08:49:00;;;;;;;11.90;7.10;;;;;;;20.24;49.13;100929.56;6336019;28;20191;-71
2021/05/13 08:52:07;;;;;;;13.77;6.38;;;;;;;20.36;45.07;100921.81;6336331;28;20183;-71
2021/05/13 08:55:12;;;;;;;9.13;6.07;;;;;;;20.32;44.90;100924.28;6335953;28;20214;-71
2021/05/13 08:58:16;;;;;;;9.23;5.90;;;;;;;20.33;44.82;100923.19;6335249;28;20366;-71
2021/05/13 09:01:22;;;;;;;6.70;6.10;;;;;;;20.31;43.93;100924.59;6335501;28;20284;-71
2021/05/13 09:04:37;;;;;;;7.20;5.43;;;;;;;20.45;43.22;100926.50;6335085;28;20445;-72
2021/05/13 09:07:40;;;;;;;11.55;5.65;;;;;;;20.20;43.41;100853.63;6335817;28;20211;-72
2021/05/13 09:10:44;;;;;;;9.07;5.68;;;;;;;20.56;43.46;100927.31;6334701;28;20224;-72
2021/05/13 09:14:00;;;;;;;12.88;5.53;;;;;;;20.69;42.84;100926.72;6336049;28;20265;-71
2021/05/13 09:17:04;;;;;;;8.85;5.85;;;;;;;20.71;42.77;100927.25;6336424;28;20228;-72
2021/05/13 09:20:25;;;;;;;7.32;6.00;;;;;;;20.65;43.82;100920.06;6336145;28;20183;-71
2021/05/13 09:23:29;;;;;;;6.50;5.63;;;;;;;20.64;44.69;100918.41;6335256;28;20413;-71
2021/05/13 09:26:36;;;;;;;10.75;5.82;;;;;;;20.65;43.54;100933.94;6336099;28;20256;-71
2021/05/13 09:29:41;;;;;;;8.82;5.85;;;;;;;20.73;43.29;100933.34;6336094;28;20259;-72
2021/05/13 09:32:46;;;;;;;7.63;5.40;;;;;;;20.76;43.77;100924.47;6335800;28;20182;-72
2021/05/13 09:35:51;;;;;;;9.65;6.22;;;;;;;20.76;43.02;100937.50;6339226;28;20183;-72
2021/05/13 09:38:54;;;;;;;8.38;5.60;;;;;;;20.69;43.10;100931.44;6339411;28;20482;-73
2021/05/13 09:41:59;;;;;;;10.45;7.00;;;;;;;20.60;42.91;100917.31;6340426;28;20190;-72
2021/05/13 09:45:04;;;;;;;7.57;6.18;;;;;;;20.80;42.05;100924.75;6340420;28;20218;-72
2021/05/13 09:48:35;;;;;;;12.10;6.40;;;;;;;20.80;43.45;100928.34;6340413;28;20214;-74
2021/05/13 09:51:40;;;;;;;10.10;6.07;;;;;;;20.88;43.09;100921.38;6339302;28;20255;-72
2021/05/13 09:54:44;;;;;;;8.35;6.20;;;;;;;20.91;42.25;100912.50;6340008;28;20206;-71
2021/05/13 09:57:53;;;;;;;7.47;6.03;;;;;;;20.91;42.29;100927.19;6340494;28;20253;-72
2021/05/13 10:00:57;;;;;;;9.02;6.20;;;;;;;20.95;41.46;100914.44;6340327;28;20283;-71
2021/05/13 10:04:00;;;;;;;8.82;5.85;;;;;;;20.97;42.18;100914.13;6339359;28;20257;-71
2021/05/13 10:07:05;;;;;;;7.45;5.40;;;;;;;21.05;41.33;100919.94;6339394;28;20222;-71
2021/05/13 10:10:10;;;;;;;15.50;5.40;;;;;;;21.04;40.24;100915.50;6339122;28;20373;-72
2021/05/13 10:13:18;;;;;;;13.30;5.53;;;;;;;20.97;39.96;100917.75;6339588;28;20365;-72
2021/05/13 10:16:25;;;;;;;13.02;5.45;;;;;;;20.75;40.22;100875.66;6338855;28;20410;-72
2021/05/13 10:19:33;;;;;;;11.98;5.68;;;;;;;20.97;39.52;100934.38;6340373;28;20228;-71
2021/05/13 10:22:37;;;;;;;5.43;5.03;;;;;;;20.98;39.20;100924.94;6338855;28;20187;-73
2021/05/13 10:25:41;;;;;;;42.58;8.82;;;;;;;21.14;39.10;100925.72;6339778;28;20183;-72
2021/05/13 10:28:45;;;;;;;11.95;5.20;;;;;;;21.18;39.00;100924.88;6338315;28;20268;-71
2021/05/13 10:32:06;;;;;;;8.10;5.20;;;;;;;21.20;38.20;100925.44;6337800;28;20414;-71
2021/05/13 10:35:12;;;;;;;11.43;5.47;;;;;;;21.15;38.75;100919.91;6339664;28;20183;-71
2021/05/13 10:38:16;;;;;;;5.25;4.78;;;;;;;21.09;38.61;100923.81;6337990;28;20353;-72
2021/05/13 10:41:32;;;;;;;5.00;4.50;;;;;;;21.29;38.53;100935.94;6339021;28;20214;-73
2021/05/13 10:44:38;;;;;;;16.17;4.60;;;;;;;21.09;38.27;100912.72;6339128;28;20190;-72
2021/05/13 10:47:41;;;;;;;12.35;4.60;;;;;;;21.18;37.93;100929.63;6338112;28;20238;-72
2021/05/13 10:50:48;;;;;;;10.88;4.60;;;;;;;21.11;37.71;100924.38;6339227;28;20245;-73
2021/05/13 10:53:52;;;;;;;5.55;4.90;;;;;;;21.13;37.44;100933.22;6339003;28;20183;-73
2021/05/13 10:57:12;;;;;;;7.90;4.45;;;;;;;21.09;37.52;100914.66;6338165;28;20183;-72
2021/05/13 11:00:28;;;;;;;5.38;4.38;;;;;;;21.09;38.18;100915.50;6337493;28;20531;-73
2021/05/13 11:03:33;;;;;;;4.40;4.20;;;;;;;21.32;37.63;100913.16;6288465;28;20189;-71
2021/05/13 11:06:43;;;;;;;4.80;4.40;;;;;;;21.31;37.43;100911.50;6288333;28;20184;-72
2021/05/13 11:09:56;;;;;;;8.32;4.45;;;;;;;21.46;36.91;100911.41;6288450;28;20184;-72
2021/05/13 11:13:09;;;;;;;15.27;4.53;;;;;;;21.56;36.63;100914.97;6288597;28;20223;-72
2021/05/13 11:16:48;;;;;;;8.32;4.70;;;;;;;21.46;35.99;100926.13;6287004;28;20207;-72
2021/05/13 11:20:19;;;;;;;10.52;4.75;;;;;;;21.48;36.28;100911.94;6288114;28;20184;-72
2021/05/13 11:23:28;;;;;;;4.93;4.50;;;;;;;21.21;36.16;100885.47;6287900;28;20184;-71
2021/05/13 11:26:33;;;;;;;8.52;4.40;;;;;;;21.49;36.66;100913.63;6288196;28;20222;-71
2021/05/13 11:29:51;;;;;;;4.15;3.90;;;;;;;21.43;35.48;100903.66;6287430;28;20211;-71
2021/05/13 11:32:55;;;;;;;6.65;4.70;;;;;;;21.42;36.08;100879.78;6287473;28;20256;-72
2021/05/13 11:36:11;;;;;;;7.65;4.32;;;;;;;21.50;35.54;100910.56;6286663;28;20188;-71
2021/05/13 11:39:17;;;;;;;10.30;4.90;;;;;;;21.60;35.88;100909.66;6287758;28;20195;-72
2021/05/13 11:42:21;;;;;;;7.10;4.65;;;;;;;21.63;36.49;100909.91;6286402;28;20207;-72
2021/05/13 11:45:24;;;;;;;5.32;5.00;;;;;;;21.69;37.11;100914.31;6286352;28;20460;-72
2021/05/13 11:48:31;;;;;;;5.97;5.13;;;;;;;21.64;37.22;100910.75;6287388;28;20211;-72
2021/05/13 11:51:37;;;;;;;9.00;5.05;;;;;;;21.44;37.18;100877.56;6286430;28;20192;-71
2021/05/13 11:54:40;;;;;;;9.70;5.25;;;;;;;21.64;38.26;100905.19;6286260;28;20396;-72
2021/05/13 11:57:48;;;;;;;7.93;5.88;;;;;;;21.83;38.94;100920.03;6287187;28;20196;-72
2021/05/13 12:00:52;;;;;;;14.10;6.05;;;;;;;21.78;39.24;100928.41;6293717;28;20241;-72
2021/05/13 12:04:01;;;;;;;6.93;5.63;;;;;;;21.85;37.80;100923.38;6337659;28;20190;-72
2021/05/13 12:07:07;;;;;;;9.00;5.70;;;;;;;21.94;38.60;100927.19;6336173;28;20292;-72
2021/05/13 12:10:12;;;;;;;6.22;5.60;;;;;;;21.92;37.81;100921.13;6336838;28;20183;-71
2021/05/13 12:13:16;;;;;;;9.95;5.60;;;;;;;22.01;38.34;100922.13;6336918;28;20278;-71
2021/05/13 12:16:21;;;;;;;8.30;6.00;;;;;;;22.00;38.26;100911.31;6336855;28;20204;-72
2021/05/13 12:19:26;;;;;;;20.88;6.50;;;;;;;21.98;38.31;100917.16;6336991;28;20201;-72
2021/05/13 12:22:31;;;;;;;5.57;5.10;;;;;;;22.10;38.68;100914.84;6337373;28;20183;-71
2021/05/13 12:25:36;;;;;;;10.82;6.28;;;;;;;21.96;38.24;100913.84;6336901;28;20221;-71
2021/05/13 12:28:43;;;;;;;5.75;5.32;;;;;;;21.91;38.31;100910.28;6335829;28;20260;-72
2021/05/13 12:31:48;;;;;;;6.15;5.75;;;;;;;22.01;38.96;100901.88;6336324;28;20278;-71
2021/05/13 12:34:51;;;;;;;11.02;5.70;;;;;;;22.09;38.46;100907.63;6337315;28;20183;-71
2021/05/13 12:38:12;;;;;;;9.90;5.30;;;;;;;22.03;37.94;100908.81;6337058;28;20186;-72
2021/05/13 12:41:20;;;;;;;6.00;5.50;;;;;;;22.02;38.17;100906.31;6334848;28;20205;-72
2021/05/13 12:44:26;;;;;;;12.95;6.10;;;;;;;22.05;38.45;100901.00;6336856;28;20187;-72
2021/05/13 12:47:30;;;;;;;6.85;5.05;;;;;;;22.04;37.15;100896.56;6336896;28;20274;-71
2021/05/13 12:50:34;;;;;;;6.28;4.45;;;;;;;22.03;36.55;100899.63;6336600;28;20261;-72
2021/05/13 12:53:46;;;;;;;5.45;4.13;;;;;;;22.13;36.75;100902.31;6335518;28;20479;-72
2021/05/13 12:56:49;;;;;;;4.70;4.25;;;;;;;22.15;36.41;100912.03;6336789;28;20218;-71
2021/05/13 12:59:55;;;;;;;4.60;4.20;;;;;;;22.11;35.49;100883.16;6336467;28;20240;-71
2021/05/13 13:03:04;;;;;;;3.90;3.60;;;;;;;22.17;35.14;100898.66;6336386;28;20512;-72
2021/05/13 13:06:12;;;;;;;4.18;3.78;;;;;;;22.08;34.80;100886.53;6336314;28;20183;-72
2021/05/13 13:09:33;;;;;;;4.25;3.90;;;;;;;22.24;34.35;100882.47;6336165;28;20211;-72
2021/05/13 13:13:02;;;;;;;3.47;3.38;;;;;;;22.33;33.34;100875.16;6341054;28;20183;-72
2021/05/13 13:16:24;;;;;;;6.50;3.05;;;;;;;22.28;33.35;100854.94;6340169;28;20205;-71
2021/05/13 13:19:28;;;;;;;2.97;2.97;;;;;;;22.36;32.55;100862.63;6340917;28;20190;-72
2021/05/13 13:22:32;;;;;;;7.40;3.60;;;;;;;22.52;32.76;100864.09;6340821;28;20183;-71
2021/05/13 13:25:36;;;;;;;4.47;3.38;;;;;;;22.63;32.34;100862.88;6340719;28;20186;-71
2021/05/13 13:28:41;;;;;;;3.47;3.20;;;;;;;22.54;32.63;100863.81;6340702;28;20211;-72
2021/05/13 13:31:46;;;;;;;3.17;3.08;;;;;;;22.69;31.13;100860.88;6341002;28;20222;-72
2021/05/13 13:34:50;;;;;;;8.75;2.95;;;;;;;23.29;29.70;100859.25;6340850;28;20259;-71
2021/05/13 13:37:53;;;;;;;3.70;3.40;;;;;;;23.41;29.19;100842.94;6340470;28;20220;-72
2021/05/13 13:40:59;;;;;;;4.03;3.40;;;;;;;23.25;30.67;100838.69;6340307;28;20255;-72
2021/05/13 13:44:04;;;;;;;3.88;3.78;;;;;;;23.12;31.04;100837.50;6340354;28;20183;-72
2021/05/13 13:47:08;;;;;;;3.97;3.10;;;;;;;22.99;30.41;100838.22;6338418;28;20199;-71
2021/05/13 13:50:11;;;;;;;3.47;3.20;;;;;;;23.07;30.72;100832.00;6340386;28;20242;-72
2021/05/13 13:53:17;;;;;;;3.65;3.47;;;;;;;23.14;31.74;100829.66;6339272;28;20451;-72
2021/05/13 13:56:21;;;;;;;4.80;4.05;;;;;;;23.12;30.66;100837.50;6339402;28;20183;-72
2021/05/13 13:59:25;;;;;;;7.97;3.95;;;;;;;23.13;30.65;100828.03;6338931;28;20209;-71
2021/05/13 14:02:28;;;;;;;4.25;3.80;;;;;;;23.20;30.75;100831.25;6339120;28;20482;-72
2021/05/13 14:05:32;;;;;;;3.60;3.50;;;;;;;23.37;31.09;100827.97;6339913;28;20183;-72
2021/05/13 14:08:36;;;;;;;3.53;3.42;;;;;;;23.45;30.65;100813.34;6343517;28;20517;-73
2021/05/13 14:11:41;;;;;;;3.60;3.25;;;;;;;23.91;29.58;100819.00;6344379;28;20183;-72
2021/05/13 14:14:44;;;;;;;6.43;3.97;;;;;;;24.39;28.92;100811.97;6343453;28;20221;-73
2021/05/13 14:17:48;;;;;;;7.55;3.97;;;;;;;24.26;29.25;100821.16;6341821;28;20462;-73
2021/05/13 14:20:51;;;;;;;4.30;3.90;;;;;;;24.08;29.58;100810.91;6340072;28;20300;-72